createdAt,value
2023-08-09T03:25:57.322Z,8.85
2023-08-09T03:28:29.712Z,10.65
2023-08-09T03:30:59.289Z,10.18
2023-08-09T03:33:29.686Z,10.23
2023-08-09T03:35:58.804Z,9.57
2023-08-09T03:38:28.098Z,8.15
2023-08-09T03:40:57.183Z,8.30
2023-08-09T03:43:26.488Z,9.00
2023-08-09T03:45:56.647Z,10.32
2023-08-09T03:48:26.238Z,9.32
2023-08-09T03:50:55.492Z,10.85
2023-08-09T03:53:25.086Z,9.95
2023-08-09T03:55:54.830Z,11.05
2023-08-09T03:58:23.857Z,9.77
2023-08-09T04:00:53.938Z,12.90
2023-08-09T04:03:23.028Z,10.48
2023-08-09T04:05:51.838Z,11.38
2023-08-09T04:08:23.894Z,10.95
2023-08-09T04:10:54.617Z,10.63
2023-08-09T04:13:24.157Z,10.90
2023-08-09T04:15:53.025Z,11.68
2023-08-09T04:18:22.813Z,11.07
2023-08-09T04:20:52.512Z,13.15
2023-08-09T04:23:22.528Z,11.18
2023-08-09T04:25:51.514Z,12.25
2023-08-09T04:28:21.018Z,11.27
2023-08-09T04:30:50.467Z,15.23
2023-08-09T04:33:19.323Z,12.45
2023-08-09T04:35:48.489Z,13.98
2023-08-09T04:38:17.337Z,12.90
2023-08-09T04:40:47.320Z,13.57
2023-08-09T04:43:17.178Z,14.52
2023-08-09T04:45:47.934Z,12.80
2023-08-09T04:48:20.757Z,12.90
2023-08-09T04:50:52.736Z,12.95
2023-08-09T04:53:25.697Z,13.52
2023-08-09T04:55:58.246Z,12.95
2023-08-09T04:58:28.851Z,13.10
2023-08-09T05:00:58.373Z,13.65
2023-08-09T05:03:27.482Z,13.75
2023-08-09T05:05:57.071Z,12.63
2023-08-09T05:08:25.909Z,15.48
2023-08-09T05:10:56.438Z,13.00
2023-08-09T05:13:27.217Z,13.38
2023-08-09T05:15:56.900Z,14.57
2023-08-09T05:18:25.681Z,15.25
2023-08-09T05:20:55.288Z,14.23
2023-08-09T05:23:24.584Z,13.40
2023-08-09T05:25:55.108Z,13.95
2023-08-09T05:28:25.223Z,14.40
2023-08-09T05:30:54.522Z,15.25
2023-08-09T05:33:23.552Z,14.32
2023-08-09T05:35:53.499Z,15.50
2023-08-09T05:38:22.707Z,13.98
2023-08-09T05:40:54.388Z,18.48
2023-08-09T05:45:53.367Z,14.23
2023-08-09T05:48:24.634Z,14.57
2023-08-09T05:50:54.108Z,15.43
2023-08-09T05:53:24.504Z,14.18
2023-08-09T05:55:54.662Z,16.38
2023-08-09T05:58:25.798Z,15.75
2023-08-09T06:00:56.314Z,15.80
2023-08-09T06:03:25.894Z,14.32
2023-08-09T06:05:55.644Z,14.63
2023-08-09T06:08:24.971Z,16.55
2023-08-09T06:10:56.297Z,16.70
2023-08-09T06:13:26.419Z,18.73
2023-08-09T06:15:55.920Z,18.90
2023-08-09T06:18:25.348Z,19.15
2023-08-09T06:20:58.777Z,18.92
2023-08-09T06:23:27.937Z,18.17
2023-08-09T06:25:56.842Z,20.17
2023-08-09T06:28:26.081Z,19.60
2023-08-09T06:30:55.469Z,20.65
2023-08-09T06:33:24.861Z,19.45
2023-08-09T06:35:54.192Z,19.63
2023-08-09T06:38:24.069Z,18.85
2023-08-09T06:40:53.175Z,18.80
2023-08-09T06:43:25.642Z,21.25
2023-08-09T06:45:54.963Z,19.52
2023-08-09T06:48:24.137Z,20.13
2023-08-09T06:51:02.271Z,22.13
2023-08-09T06:53:31.516Z,22.13
2023-08-09T06:56:00.887Z,27.17
2023-08-09T06:58:30.978Z,28.02
2023-08-09T07:00:59.882Z,31.55
2023-08-09T07:03:29.125Z,39.30
2023-08-09T07:05:58.800Z,47.90
2023-08-09T07:08:29.240Z,44.65
2023-08-09T07:11:01.248Z,38.85
2023-08-09T07:13:31.415Z,25.80
2023-08-09T07:16:03.317Z,21.65
2023-08-09T07:18:34.870Z,24.08
2023-08-09T07:21:04.838Z,18.10
2023-08-09T07:23:47.328Z,20.90
2023-08-09T07:26:23.665Z,28.27
2023-08-09T07:28:52.829Z,26.65
2023-08-09T07:31:27.062Z,21.00
2023-08-09T07:33:56.131Z,23.50
2023-08-09T07:36:27.870Z,22.08
2023-08-09T07:38:57.792Z,21.85
2023-08-09T07:41:27.244Z,22.23
2023-08-09T07:43:57.382Z,21.08
2023-08-09T07:46:27.414Z,21.98
2023-08-09T07:48:56.949Z,21.60
2023-08-09T07:51:26.448Z,21.50
2023-08-09T07:53:56.513Z,22.20
2023-08-09T07:56:25.869Z,22.23
2023-08-09T07:58:56.281Z,24.45
2023-08-09T08:01:25.183Z,23.88
2023-08-09T08:03:54.511Z,22.92
2023-08-09T08:06:23.879Z,19.30
2023-08-09T08:08:58.271Z,19.50
2023-08-09T08:11:27.819Z,19.02
2023-08-09T08:13:56.769Z,17.77
2023-08-09T08:16:26.203Z,18.50
2023-08-09T08:18:55.413Z,21.17
2023-08-09T08:21:25.009Z,23.17
2023-08-09T08:23:55.223Z,22.90
2023-08-09T08:29:45.121Z,22.27
2023-08-09T08:32:14.740Z,20.75
2023-08-09T08:34:43.643Z,21.90
2023-08-09T08:37:15.332Z,19.35
2023-08-09T08:39:47.037Z,19.02
2023-08-09T08:44:45.437Z,18.20
2023-08-09T08:47:14.740Z,21.67
2023-08-09T08:49:51.069Z,20.98
2023-08-09T08:52:21.600Z,23.27
2023-08-09T08:54:51.433Z,20.98
2023-08-09T08:57:20.648Z,19.80
2023-08-09T08:59:51.611Z,19.77
2023-08-09T09:02:21.785Z,18.90
2023-08-09T09:04:53.586Z,17.77
2023-08-09T09:07:22.984Z,19.58
2023-08-09T09:10:06.028Z,17.33
2023-08-09T09:12:39.097Z,15.70
2023-08-09T09:15:12.456Z,21.70
2023-08-09T09:17:51.457Z,19.42
2023-08-09T09:20:45.989Z,20.05
2023-08-09T09:23:36.503Z,15.30
2023-08-09T09:26:16.807Z,13.95
2023-08-09T09:28:50.604Z,15.75
2023-08-09T09:31:24.014Z,17.15
2023-08-09T09:33:54.022Z,21.55
2023-08-09T09:36:23.734Z,22.15
2023-08-09T09:38:56.550Z,30.45
2023-08-09T09:41:26.740Z,31.55
2023-08-09T09:43:56.235Z,30.75
2023-08-09T09:46:36.855Z,33.10
2023-08-09T09:49:08.293Z,34.53
2023-08-09T09:51:38.534Z,34.45
2023-08-09T09:54:08.804Z,31.98
2023-08-09T09:56:38.307Z,23.98
2023-08-09T09:59:07.423Z,15.68
2023-08-09T10:01:41.892Z,13.75
2023-08-09T10:04:13.782Z,13.57
2023-08-09T10:06:44.421Z,12.40
2023-08-09T10:09:16.267Z,10.18
2023-08-09T10:11:52.369Z,9.40
2023-08-09T10:14:24.595Z,9.75
2023-08-09T10:17:06.137Z,12.15
2023-08-09T10:19:45.391Z,11.85
2023-08-09T10:22:16.424Z,11.35
2023-08-09T10:24:49.565Z,11.80
2023-08-09T10:27:56.076Z,11.68
2023-08-09T10:30:33.236Z,9.20
2023-08-09T10:33:02.886Z,9.95
2023-08-09T10:35:52.550Z,9.40
2023-08-09T10:38:48.181Z,11.05
2023-08-09T10:41:27.534Z,9.73
2023-08-09T10:44:06.810Z,9.85
2023-08-09T10:46:37.195Z,9.38
2023-08-09T10:49:07.540Z,10.20
2023-08-09T10:51:47.879Z,8.82
2023-08-09T10:54:23.477Z,8.95
2023-08-09T10:56:52.713Z,8.70
2023-08-09T10:59:30.087Z,10.23
2023-08-09T11:02:00.474Z,9.55
2023-08-09T11:04:30.245Z,8.57
2023-08-09T11:07:01.828Z,11.75
2023-08-09T11:09:34.302Z,9.00
2023-08-09T11:12:03.509Z,10.07
2023-08-09T11:14:34.784Z,14.90
2023-08-09T11:17:04.364Z,14.15
2023-08-09T11:19:36.577Z,10.80
2023-08-09T11:22:06.977Z,9.70
2023-08-09T11:24:36.595Z,11.02
2023-08-09T11:27:05.596Z,10.82
2023-08-09T11:29:36.455Z,14.10
2023-08-09T11:34:35.457Z,14.10
2023-08-09T11:37:04.520Z,9.02
2023-08-09T11:39:34.352Z,9.15
2023-08-09T11:42:03.597Z,9.85
2023-08-09T11:44:37.613Z,10.25
2023-08-09T11:47:08.486Z,10.50
2023-08-09T11:49:38.277Z,8.30
2023-08-09T11:52:08.463Z,8.75
2023-08-09T11:54:39.623Z,9.40
2023-08-09T11:57:09.668Z,8.65
2023-08-09T11:59:44.616Z,8.57
2023-08-09T12:02:14.015Z,8.35
2023-08-09T12:04:58.130Z,7.90
2023-08-09T12:08:06.596Z,7.55
2023-08-09T12:10:44.579Z,8.73
2023-08-09T12:13:13.889Z,10.93
2023-08-09T12:15:42.893Z,8.32
2023-08-09T12:18:12.306Z,7.03
2023-08-09T12:20:41.195Z,9.15
2023-08-09T12:23:10.186Z,9.40
2023-08-09T12:25:39.871Z,9.23
2023-08-09T12:28:09.865Z,8.07
2023-08-09T12:30:40.474Z,9.63
2023-08-09T12:35:40.541Z,7.60
2023-08-09T12:38:09.598Z,10.45
2023-08-09T12:40:40.415Z,9.05
2023-08-09T12:43:10.122Z,9.63
2023-08-09T12:45:39.146Z,7.75
2023-08-09T12:48:13.193Z,8.27
2023-08-09T12:50:42.294Z,8.52
2023-08-09T12:53:11.165Z,11.80
2023-08-09T12:55:40.512Z,8.13
2023-08-09T12:58:09.240Z,7.95
2023-08-09T13:00:38.594Z,9.65
2023-08-09T13:03:08.939Z,10.55
2023-08-09T13:05:39.036Z,9.15
2023-08-09T13:08:08.264Z,8.18
2023-08-09T13:10:37.095Z,7.38
2023-08-09T13:13:06.611Z,9.60
2023-08-09T13:15:35.584Z,9.38
2023-08-09T13:18:04.766Z,9.30
2023-08-09T13:20:34.023Z,11.05
2023-08-09T13:23:03.538Z,11.77
2023-08-09T13:25:32.744Z,9.93
2023-08-09T13:28:05.714Z,12.35
2023-08-09T13:30:35.347Z,12.30
2023-08-09T13:33:06.106Z,11.27
2023-08-09T13:35:36.443Z,10.50
2023-08-09T13:38:06.907Z,11.45
2023-08-09T13:40:36.809Z,11.77
